sensor_id;sensor_type;location;lat;lon;timestamp;temperature;humidity
33988;DHT22;37428;53.580;-1.666;2022-10-15T00:01:36;10.30;82.10
33988;DHT22;37428;53.580;-1.666;2022-10-15T00:04:38;10.30;82.30
33988;DHT22;37428;53.580;-1.666;2022-10-15T00:07:42;10.20;82.30
33988;DHT22;37428;53.580;-1.666;2022-10-15T00:10:44;10.20;82.70
33988;DHT22;37428;53.580;-1.666;2022-10-15T00:13:46;10.20;82.70
33988;DHT22;37428;53.580;-1.666;2022-10-15T00:16:48;10.30;82.90
33988;DHT22;37428;53.580;-1.666;2022-10-15T00:19:50;10.30;82.90
33988;DHT22;37428;53.580;-1.666;2022-10-15T00:22:54;10.40;82.70
33988;DHT22;37428;53.580;-1.666;2022-10-15T00:26:04;10.40;82.60
33988;DHT22;37428;53.580;-1.666;2022-10-15T00:29:07;10.40;82.50
33988;DHT22;37428;53.580;-1.666;2022-10-15T00:32:09;10.40;82.40
33988;DHT22;37428;53.580;-1.666;2022-10-15T00:35:11;10.40;82.30
33988;DHT22;37428;53.580;-1.666;2022-10-15T00:38:15;10.40;82.10
33988;DHT22;37428;53.580;-1.666;2022-10-15T00:41:20;10.40;82.20
33988;DHT22;37428;53.580;-1.666;2022-10-15T00:44:51;10.40;82.30
33988;DHT22;37428;53.580;-1.666;2022-10-15T00:47:54;10.40;82.30
33988;DHT22;37428;53.580;-1.666;2022-10-15T00:50:57;10.40;82.30
33988;DHT22;37428;53.580;-1.666;2022-10-15T00:54:03;10.40;82.20
33988;DHT22;37428;53.580;-1.666;2022-10-15T00:57:06;10.30;82.20
33988;DHT22;37428;53.580;-1.666;2022-10-15T01:00:12;10.30;82.40
33988;DHT22;37428;53.580;-1.666;2022-10-15T01:03:15;10.30;82.60
33988;DHT22;37428;53.580;-1.666;2022-10-15T01:06:18;10.30;83.30
33988;DHT22;37428;53.580;-1.666;2022-10-15T01:09:22;10.20;84.30
33988;DHT22;37428;53.580;-1.666;2022-10-15T01:12:37;10.10;84.80
33988;DHT22;37428;53.580;-1.666;2022-10-15T01:15:45;10.10;85.10
33988;DHT22;37428;53.580;-1.666;2022-10-15T01:18:54;10.10;85.30
33988;DHT22;37428;53.580;-1.666;2022-10-15T01:22:02;10.10;85.90
33988;DHT22;37428;53.580;-1.666;2022-10-15T01:25:14;10.10;86.20
33988;DHT22;37428;53.580;-1.666;2022-10-15T01:28:36;10.10;86.40
33988;DHT22;37428;53.580;-1.666;2022-10-15T01:31:49;10.10;86.80
33988;DHT22;37428;53.580;-1.666;2022-10-15T01:34:58;10.10;87.20
33988;DHT22;37428;53.580;-1.666;2022-10-15T01:38:11;10.10;87.00
33988;DHT22;37428;53.580;-1.666;2022-10-15T01:41:21;10.20;87.00
33988;DHT22;37428;53.580;-1.666;2022-10-15T01:44:30;10.20;86.80
33988;DHT22;37428;53.580;-1.666;2022-10-15T01:47:36;10.10;86.30
33988;DHT22;37428;53.580;-1.666;2022-10-15T01:50:44;10.10;86.80
33988;DHT22;37428;53.580;-1.666;2022-10-15T01:53:48;10.00;86.40
33988;DHT22;37428;53.580;-1.666;2022-10-15T01:56:51;10.00;86.50
33988;DHT22;37428;53.580;-1.666;2022-10-15T01:59:54;10.00;86.80
33988;DHT22;37428;53.580;-1.666;2022-10-15T02:03:00;10.00;86.90
33988;DHT22;37428;53.580;-1.666;2022-10-15T02:06:06;10.00;87.30
33988;DHT22;37428;53.580;-1.666;2022-10-15T02:09:15;10.00;87.10
33988;DHT22;37428;53.580;-1.666;2022-10-15T02:12:35;10.00;87.40
33988;DHT22;37428;53.580;-1.666;2022-10-15T02:15:50;10.00;87.80
33988;DHT22;37428;53.580;-1.666;2022-10-15T02:19:02;9.90;88.20
33988;DHT22;37428;53.580;-1.666;2022-10-15T02:22:08;10.00;88.70
33988;DHT22;37428;53.580;-1.666;2022-10-15T02:25:15;9.90;89.10
33988;DHT22;37428;53.580;-1.666;2022-10-15T02:28:20;9.90;89.90
33988;DHT22;37428;53.580;-1.666;2022-10-15T02:31:26;9.90;90.30
33988;DHT22;37428;53.580;-1.666;2022-10-15T02:34:32;9.90;90.30
33988;DHT22;37428;53.580;-1.666;2022-10-15T02:37:34;10.00;90.20
33988;DHT22;37428;53.580;-1.666;2022-10-15T02:40:38;10.00;90.90
33988;DHT22;37428;53.580;-1.666;2022-10-15T02:43:41;9.90;91.20
33988;DHT22;37428;53.580;-1.666;2022-10-15T02:46:43;9.90;91.70
33988;DHT22;37428;53.580;-1.666;2022-10-15T02:49:47;9.90;92.30
33988;DHT22;37428;53.580;-1.666;2022-10-15T02:52:49;9.80;92.90
33988;DHT22;37428;53.580;-1.666;2022-10-15T02:55:51;9.80;93.60
33988;DHT22;37428;53.580;-1.666;2022-10-15T02:58:53;9.80;94.60
33988;DHT22;37428;53.580;-1.666;2022-10-15T03:01:55;9.80;95.30
33988;DHT22;37428;53.580;-1.666;2022-10-15T03:04:59;9.80;95.60
33988;DHT22;37428;53.580;-1.666;2022-10-15T03:08:01;9.70;96.00
33988;DHT22;37428;53.580;-1.666;2022-10-15T03:11:03;9.70;96.70
33988;DHT22;37428;53.580;-1.666;2022-10-15T03:14:05;9.70;96.80
33988;DHT22;37428;53.580;-1.666;2022-10-15T03:17:08;9.70;97.20
33988;DHT22;37428;53.580;-1.666;2022-10-15T03:20:11;9.70;97.80
33988;DHT22;37428;53.580;-1.666;2022-10-15T03:23:13;9.70;98.10
33988;DHT22;37428;53.580;-1.666;2022-10-15T03:26:15;9.80;98.40
33988;DHT22;37428;53.580;-1.666;2022-10-15T03:29:17;9.80;98.60
33988;DHT22;37428;53.580;-1.666;2022-10-15T03:32:20;9.80;98.80
33988;DHT22;37428;53.580;-1.666;2022-10-15T03:35:23;9.70;99.00
33988;DHT22;37428;53.580;-1.666;2022-10-15T03:38:25;9.70;99.30
33988;DHT22;37428;53.580;-1.666;2022-10-15T03:41:27;9.80;99.60
33988;DHT22;37428;53.580;-1.666;2022-10-15T03:44:30;9.80;99.90
33988;DHT22;37428;53.580;-1.666;2022-10-15T03:47:33;9.80;99.90
33988;DHT22;37428;53.580;-1.666;2022-10-15T03:50:37;9.80;99.90
33988;DHT22;37428;53.580;-1.666;2022-10-15T03:53:39;9.90;99.90
33988;DHT22;37428;53.580;-1.666;2022-10-15T03:56:41;9.90;99.90
33988;DHT22;37428;53.580;-1.666;2022-10-15T03:59:43;10.00;99.90
33988;DHT22;37428;53.580;-1.666;2022-10-15T04:02:45;10.10;99.90
33988;DHT22;37428;53.580;-1.666;2022-10-15T04:05:51;10.10;99.30
33988;DHT22;37428;53.580;-1.666;2022-10-15T04:08:53;10.20;99.00
33988;DHT22;37428;53.580;-1.666;2022-10-15T04:11:55;10.20;98.60
33988;DHT22;37428;53.580;-1.666;2022-10-15T04:14:57;10.20;98.70
33988;DHT22;37428;53.580;-1.666;2022-10-15T04:18:00;10.30;99.00
33988;DHT22;37428;53.580;-1.666;2022-10-15T04:21:03;10.30;98.50
33988;DHT22;37428;53.580;-1.666;2022-10-15T04:24:05;10.30;98.70
33988;DHT22;37428;53.580;-1.666;2022-10-15T04:27:08;10.30;98.50
33988;DHT22;37428;53.580;-1.666;2022-10-15T04:30:11;10.40;98.30
33988;DHT22;37428;53.580;-1.666;2022-10-15T04:33:13;10.40;97.90
33988;DHT22;37428;53.580;-1.666;2022-10-15T04:36:17;10.40;97.90
33988;DHT22;37428;53.580;-1.666;2022-10-15T04:39:19;10.50;97.50
33988;DHT22;37428;53.580;-1.666;2022-10-15T04:42:21;10.40;97.50
33988;DHT22;37428;53.580;-1.666;2022-10-15T04:45:23;10.40;97.40
33988;DHT22;37428;53.580;-1.666;2022-10-15T04:48:27;10.40;97.30
33988;DHT22;37428;53.580;-1.666;2022-10-15T04:51:31;10.40;97.30
33988;DHT22;37428;53.580;-1.666;2022-10-15T04:54:33;10.40;96.70
33988;DHT22;37428;53.580;-1.666;2022-10-15T04:57:35;10.30;96.10
33988;DHT22;37428;53.580;-1.666;2022-10-15T05:00:37;10.40;96.00
33988;DHT22;37428;53.580;-1.666;2022-10-15T05:03:41;10.40;95.90
33988;DHT22;37428;53.580;-1.666;2022-10-15T05:06:45;10.40;95.80
33988;DHT22;37428;53.580;-1.666;2022-10-15T05:09:47;10.50;95.50
33988;DHT22;37428;53.580;-1.666;2022-10-15T05:12:49;10.50;95.40
33988;DHT22;37428;53.580;-1.666;2022-10-15T05:15:52;10.50;95.40
33988;DHT22;37428;53.580;-1.666;2022-10-15T05:18:56;10.60;95.10
33988;DHT22;37428;53.580;-1.666;2022-10-15T05:22:00;10.60;94.70
33988;DHT22;37428;53.580;-1.666;2022-10-15T05:25:02;10.60;94.40
33988;DHT22;37428;53.580;-1.666;2022-10-15T05:28:04;10.60;94.20
33988;DHT22;37428;53.580;-1.666;2022-10-15T05:31:07;10.60;94.10
33988;DHT22;37428;53.580;-1.666;2022-10-15T05:34:11;10.60;93.60
33988;DHT22;37428;53.580;-1.666;2022-10-15T05:37:15;10.60;93.20
33988;DHT22;37428;53.580;-1.666;2022-10-15T05:40:17;10.50;92.80
33988;DHT22;37428;53.580;-1.666;2022-10-15T05:43:19;10.50;92.40
33988;DHT22;37428;53.580;-1.666;2022-10-15T05:46:21;10.40;92.60
33988;DHT22;37428;53.580;-1.666;2022-10-15T05:49:23;10.40;92.30
33988;DHT22;37428;53.580;-1.666;2022-10-15T05:52:27;10.40;91.50
33988;DHT22;37428;53.580;-1.666;2022-10-15T05:55:29;10.40;91.10
33988;DHT22;37428;53.580;-1.666;2022-10-15T05:58:33;10.30;89.70
33988;DHT22;37428;53.580;-1.666;2022-10-15T06:01:35;10.30;88.50
33988;DHT22;37428;53.580;-1.666;2022-10-15T06:04:37;10.30;87.60
33988;DHT22;37428;53.580;-1.666;2022-10-15T06:07:41;10.20;86.50
33988;DHT22;37428;53.580;-1.666;2022-10-15T06:10:43;10.10;86.10
33988;DHT22;37428;53.580;-1.666;2022-10-15T06:13:46;10.10;85.80
33988;DHT22;37428;53.580;-1.666;2022-10-15T06:16:48;10.00;84.90
33988;DHT22;37428;53.580;-1.666;2022-10-15T06:19:50;10.00;85.00
33988;DHT22;37428;53.580;-1.666;2022-10-15T06:22:57;10.00;85.30
33988;DHT22;37428;53.580;-1.666;2022-10-15T06:26:01;9.90;84.70
33988;DHT22;37428;53.580;-1.666;2022-10-15T06:29:04;9.90;85.30
33988;DHT22;37428;53.580;-1.666;2022-10-15T06:32:08;9.90;85.90
33988;DHT22;37428;53.580;-1.666;2022-10-15T06:35:10;9.90;86.50
33988;DHT22;37428;53.580;-1.666;2022-10-15T06:38:14;9.90;86.90
33988;DHT22;37428;53.580;-1.666;2022-10-15T06:41:16;9.90;87.30
33988;DHT22;37428;53.580;-1.666;2022-10-15T06:44:18;9.90;87.30
33988;DHT22;37428;53.580;-1.666;2022-10-15T06:47:20;10.00;87.40
33988;DHT22;37428;53.580;-1.666;2022-10-15T06:50:22;10.10;88.20
33988;DHT22;37428;53.580;-1.666;2022-10-15T06:53:26;10.10;88.30
33988;DHT22;37428;53.580;-1.666;2022-10-15T06:56:28;10.20;88.70
33988;DHT22;37428;53.580;-1.666;2022-10-15T06:59:30;10.30;89.10
33988;DHT22;37428;53.580;-1.666;2022-10-15T07:02:34;10.30;89.40
33988;DHT22;37428;53.580;-1.666;2022-10-15T07:05:36;10.20;89.00
33988;DHT22;37428;53.580;-1.666;2022-10-15T07:08:40;10.30;89.40
33988;DHT22;37428;53.580;-1.666;2022-10-15T07:11:42;10.30;88.60
33988;DHT22;37428;53.580;-1.666;2022-10-15T07:14:44;10.20;88.10
33988;DHT22;37428;53.580;-1.666;2022-10-15T07:17:46;10.20;88.60
33988;DHT22;37428;53.580;-1.666;2022-10-15T07:20:49;10.20;89.80
33988;DHT22;37428;53.580;-1.666;2022-10-15T07:23:52;10.10;89.90
33988;DHT22;37428;53.580;-1.666;2022-10-15T07:26:55;10.00;89.30
33988;DHT22;37428;53.580;-1.666;2022-10-15T07:29:57;10.00;89.50
33988;DHT22;37428;53.580;-1.666;2022-10-15T07:32:59;10.00;89.60
33988;DHT22;37428;53.580;-1.666;2022-10-15T07:36:02;10.00;89.30
33988;DHT22;37428;53.580;-1.666;2022-10-15T07:39:08;10.00;89.80
33988;DHT22;37428;53.580;-1.666;2022-10-15T07:42:10;10.00;89.10
33988;DHT22;37428;53.580;-1.666;2022-10-15T07:45:12;10.10;88.40
33988;DHT22;37428;53.580;-1.666;2022-10-15T07:48:14;10.20;87.60
33988;DHT22;37428;53.580;-1.666;2022-10-15T07:51:16;10.10;87.60
33988;DHT22;37428;53.580;-1.666;2022-10-15T07:54:20;10.00;86.80
33988;DHT22;37428;53.580;-1.666;2022-10-15T07:57:22;10.00;84.90
33988;DHT22;37428;53.580;-1.666;2022-10-15T08:00:24;10.00;85.10
33988;DHT22;37428;53.580;-1.666;2022-10-15T08:03:26;9.90;85.00
33988;DHT22;37428;53.580;-1.666;2022-10-15T08:06:30;9.90;84.70
33988;DHT22;37428;53.580;-1.666;2022-10-15T08:09:34;10.00;84.60
33988;DHT22;37428;53.580;-1.666;2022-10-15T08:12:36;10.20;84.20
33988;DHT22;37428;53.580;-1.666;2022-10-15T08:15:38;10.40;83.60
33988;DHT22;37428;53.580;-1.666;2022-10-15T08:18:41;10.50;82.60
33988;DHT22;37428;53.580;-1.666;2022-10-15T08:21:43;10.70;82.30
33988;DHT22;37428;53.580;-1.666;2022-10-15T08:24:47;10.80;81.50
33988;DHT22;37428;53.580;-1.666;2022-10-15T08:27:49;10.90;80.30
33988;DHT22;37428;53.580;-1.666;2022-10-15T08:30:51;11.10;80.70
33988;DHT22;37428;53.580;-1.666;2022-10-15T08:33:53;11.20;79.40
33988;DHT22;37428;53.580;-1.666;2022-10-15T08:36:55;11.30;78.80
33988;DHT22;37428;53.580;-1.666;2022-10-15T08:39:59;11.30;78.90
33988;DHT22;37428;53.580;-1.666;2022-10-15T08:43:01;11.40;79.30
33988;DHT22;37428;53.580;-1.666;2022-10-15T08:46:08;11.50;78.50
33988;DHT22;37428;53.580;-1.666;2022-10-15T08:52:39;11.70;77.70
33988;DHT22;37428;53.580;-1.666;2022-10-15T08:55:47;11.80;78.00
33988;DHT22;37428;53.580;-1.666;2022-10-15T08:58:56;11.90;77.50
33988;DHT22;37428;53.580;-1.666;2022-10-15T09:02:03;12.00;77.50
33988;DHT22;37428;53.580;-1.666;2022-10-15T09:05:21;12.10;76.90
33988;DHT22;37428;53.580;-1.666;2022-10-15T09:08:30;12.30;77.30
33988;DHT22;37428;53.580;-1.666;2022-10-15T09:11:43;12.50;75.80
33988;DHT22;37428;53.580;-1.666;2022-10-15T09:14:49;12.50;74.60
33988;DHT22;37428;53.580;-1.666;2022-10-15T09:17:53;12.50;73.60
33988;DHT22;37428;53.580;-1.666;2022-10-15T09:20:56;12.70;73.00
33988;DHT22;37428;53.580;-1.666;2022-10-15T09:24:01;12.90;72.40
33988;DHT22;37428;53.580;-1.666;2022-10-15T09:27:29;13.10;73.00
33988;DHT22;37428;53.580;-1.666;2022-10-15T09:30:35;13.20;70.50
33988;DHT22;37428;53.580;-1.666;2022-10-15T09:33:41;13.20;71.20
33988;DHT22;37428;53.580;-1.666;2022-10-15T09:36:49;13.40;68.70
33988;DHT22;37428;53.580;-1.666;2022-10-15T09:40:07;13.40;68.50
33988;DHT22;37428;53.580;-1.666;2022-10-15T09:43:22;13.60;66.00
33988;DHT22;37428;53.580;-1.666;2022-10-15T09:46:27;13.60;65.50
33988;DHT22;37428;53.580;-1.666;2022-10-15T09:49:29;13.70;65.80
33988;DHT22;37428;53.580;-1.666;2022-10-15T09:52:51;13.90;66.20
33988;DHT22;37428;53.580;-1.666;2022-10-15T09:56:05;14.10;65.80
33988;DHT22;37428;53.580;-1.666;2022-10-15T09:59:16;14.20;64.40
33988;DHT22;37428;53.580;-1.666;2022-10-15T10:02:20;14.30;64.40
33988;DHT22;37428;53.580;-1.666;2022-10-15T10:05:28;14.40;64.00
33988;DHT22;37428;53.580;-1.666;2022-10-15T10:08:34;14.50;63.20
33988;DHT22;37428;53.580;-1.666;2022-10-15T10:11:47;14.60;62.70
33988;DHT22;37428;53.580;-1.666;2022-10-15T10:14:55;14.50;61.70
33988;DHT22;37428;53.580;-1.666;2022-10-15T10:17:57;14.60;61.10
33988;DHT22;37428;53.580;-1.666;2022-10-15T10:21:01;14.60;57.80
33988;DHT22;37428;53.580;-1.666;2022-10-15T10:24:25;14.70;57.80
33988;DHT22;37428;53.580;-1.666;2022-10-15T10:27:30;14.80;57.80
33988;DHT22;37428;53.580;-1.666;2022-10-15T10:30:35;14.80;56.20
33988;DHT22;37428;53.580;-1.666;2022-10-15T10:33:43;14.90;54.80
33988;DHT22;37428;53.580;-1.666;2022-10-15T10:36:48;14.90;54.50
33988;DHT22;37428;53.580;-1.666;2022-10-15T10:39:52;14.90;53.40
33988;DHT22;37428;53.580;-1.666;2022-10-15T10:43:17;14.90;54.10
33988;DHT22;37428;53.580;-1.666;2022-10-15T10:46:21;15.10;54.80
33988;DHT22;37428;53.580;-1.666;2022-10-15T10:49:30;15.30;53.80
33988;DHT22;37428;53.580;-1.666;2022-10-15T10:52:35;15.30;51.80
33988;DHT22;37428;53.580;-1.666;2022-10-15T10:55:38;15.30;52.90
33988;DHT22;37428;53.580;-1.666;2022-10-15T10:58:40;15.30;55.00
33988;DHT22;37428;53.580;-1.666;2022-10-15T11:01:44;15.40;54.30
33988;DHT22;37428;53.580;-1.666;2022-10-15T11:04:47;15.50;53.00
33988;DHT22;37428;53.580;-1.666;2022-10-15T11:07:59;15.70;52.80
33988;DHT22;37428;53.580;-1.666;2022-10-15T11:11:06;15.90;50.30
33988;DHT22;37428;53.580;-1.666;2022-10-15T11:14:19;16.00;51.40
33988;DHT22;37428;53.580;-1.666;2022-10-15T11:17:30;16.20;51.70
33988;DHT22;37428;53.580;-1.666;2022-10-15T11:20:48;16.50;50.70
33988;DHT22;37428;53.580;-1.666;2022-10-15T11:24:07;16.40;49.70
33988;DHT22;37428;53.580;-1.666;2022-10-15T11:27:34;16.50;49.50
33988;DHT22;37428;53.580;-1.666;2022-10-15T11:30:48;16.40;49.50
33988;DHT22;37428;53.580;-1.666;2022-10-15T11:34:04;16.40;48.90
33988;DHT22;37428;53.580;-1.666;2022-10-15T11:37:21;16.40;47.40
33988;DHT22;37428;53.580;-1.666;2022-10-15T11:40:31;16.60;47.70
33988;DHT22;37428;53.580;-1.666;2022-10-15T11:43:51;16.80;48.30
33988;DHT22;37428;53.580;-1.666;2022-10-15T11:47:09;17.00;48.20
33988;DHT22;37428;53.580;-1.666;2022-10-15T11:50:27;17.10;46.60
33988;DHT22;37428;53.580;-1.666;2022-10-15T11:53:51;17.10;46.50
33988;DHT22;37428;53.580;-1.666;2022-10-15T11:56:56;17.40;48.90
33988;DHT22;37428;53.580;-1.666;2022-10-15T12:00:02;17.40;48.20
33988;DHT22;37428;53.580;-1.666;2022-10-15T12:03:12;17.60;47.80
33988;DHT22;37428;53.580;-1.666;2022-10-15T12:06:19;17.60;46.40
33988;DHT22;37428;53.580;-1.666;2022-10-15T12:09:25;17.40;45.50
33988;DHT22;37428;53.580;-1.666;2022-10-15T12:12:36;17.30;44.30
33988;DHT22;37428;53.580;-1.666;2022-10-15T12:15:44;17.50;45.30
33988;DHT22;37428;53.580;-1.666;2022-10-15T12:18:54;17.60;44.90
33988;DHT22;37428;53.580;-1.666;2022-10-15T12:22:08;17.60;44.70
33988;DHT22;37428;53.580;-1.666;2022-10-15T12:25:39;17.60;44.40
33988;DHT22;37428;53.580;-1.666;2022-10-15T12:28:47;17.60;44.60
33988;DHT22;37428;53.580;-1.666;2022-10-15T12:31:52;17.90;44.40
33988;DHT22;37428;53.580;-1.666;2022-10-15T12:34:57;17.90;44.50
33988;DHT22;37428;53.580;-1.666;2022-10-15T12:38:22;17.90;44.90
33988;DHT22;37428;53.580;-1.666;2022-10-15T12:41:37;17.90;43.90
33988;DHT22;37428;53.580;-1.666;2022-10-15T12:44:47;17.80;44.70
33988;DHT22;37428;53.580;-1.666;2022-10-15T12:47:52;17.40;45.40
33988;DHT22;37428;53.580;-1.666;2022-10-15T12:54:41;16.50;48.40
33988;DHT22;37428;53.580;-1.666;2022-10-15T12:57:55;16.50;49.00
33988;DHT22;37428;53.580;-1.666;2022-10-15T13:00:57;16.60;48.90
33988;DHT22;37428;53.580;-1.666;2022-10-15T13:04:07;16.50;50.00
33988;DHT22;37428;53.580;-1.666;2022-10-15T13:07:12;16.40;51.20
33988;DHT22;37428;53.580;-1.666;2022-10-15T13:10:19;16.10;53.00
33988;DHT22;37428;53.580;-1.666;2022-10-15T13:13:24;15.70;52.90
33988;DHT22;37428;53.580;-1.666;2022-10-15T13:16:28;15.30;53.10
33988;DHT22;37428;53.580;-1.666;2022-10-15T13:19:33;15.10;56.30
33988;DHT22;37428;53.580;-1.666;2022-10-15T13:22:36;14.70;57.30
33988;DHT22;37428;53.580;-1.666;2022-10-15T13:25:39;13.80;59.50
33988;DHT22;37428;53.580;-1.666;2022-10-15T13:28:42;13.20;62.00
33988;DHT22;37428;53.580;-1.666;2022-10-15T13:31:45;12.60;64.40
33988;DHT22;37428;53.580;-1.666;2022-10-15T13:34:49;12.40;66.90
33988;DHT22;37428;53.580;-1.666;2022-10-15T13:37:51;13.00;69.00
33988;DHT22;37428;53.580;-1.666;2022-10-15T13:40:55;13.60;67.00
33988;DHT22;37428;53.580;-1.666;2022-10-15T13:43:57;13.80;64.10
33988;DHT22;37428;53.580;-1.666;2022-10-15T13:47:00;14.10;62.30
33988;DHT22;37428;53.580;-1.666;2022-10-15T13:50:15;14.30;60.80
33988;DHT22;37428;53.580;-1.666;2022-10-15T13:53:22;14.70;61.50
33988;DHT22;37428;53.580;-1.666;2022-10-15T13:56:30;14.70;60.70
33988;DHT22;37428;53.580;-1.666;2022-10-15T13:59:32;15.00;61.50
33988;DHT22;37428;53.580;-1.666;2022-10-15T14:02:35;15.00;59.60
33988;DHT22;37428;53.580;-1.666;2022-10-15T14:05:37;15.10;59.90
33988;DHT22;37428;53.580;-1.666;2022-10-15T14:08:39;14.90;59.20
33988;DHT22;37428;53.580;-1.666;2022-10-15T14:11:42;14.70;59.60
33988;DHT22;37428;53.580;-1.666;2022-10-15T14:14:45;14.40;59.60
33988;DHT22;37428;53.580;-1.666;2022-10-15T14:17:49;14.10;60.40
33988;DHT22;37428;53.580;-1.666;2022-10-15T14:20:52;14.00;62.10
33988;DHT22;37428;53.580;-1.666;2022-10-15T14:24:03;13.80;62.00
33988;DHT22;37428;53.580;-1.666;2022-10-15T14:27:13;13.60;63.00
33988;DHT22;37428;53.580;-1.666;2022-10-15T14:30:22;13.50;63.60
33988;DHT22;37428;53.580;-1.666;2022-10-15T14:33:30;13.40;64.00
33988;DHT22;37428;53.580;-1.666;2022-10-15T14:36:40;13.20;65.00
33988;DHT22;37428;53.580;-1.666;2022-10-15T14:39:47;13.10;66.20
33988;DHT22;37428;53.580;-1.666;2022-10-15T14:43:02;12.80;66.80
33988;DHT22;37428;53.580;-1.666;2022-10-15T14:46:06;12.50;66.20
33988;DHT22;37428;53.580;-1.666;2022-10-15T14:49:27;12.00;66.30
33988;DHT22;37428;53.580;-1.666;2022-10-15T14:52:30;11.80;64.50
33988;DHT22;37428;53.580;-1.666;2022-10-15T14:55:34;11.70;66.20
33988;DHT22;37428;53.580;-1.666;2022-10-15T14:58:40;11.50;68.50
33988;DHT22;37428;53.580;-1.666;2022-10-15T15:01:52;11.40;68.70
33988;DHT22;37428;53.580;-1.666;2022-10-15T15:05:06;11.40;68.60
33988;DHT22;37428;53.580;-1.666;2022-10-15T15:08:09;11.40;68.50
33988;DHT22;37428;53.580;-1.666;2022-10-15T15:11:12;11.40;69.20
33988;DHT22;37428;53.580;-1.666;2022-10-15T15:14:22;11.40;69.80
33988;DHT22;37428;53.580;-1.666;2022-10-15T15:17:27;11.40;69.40
33988;DHT22;37428;53.580;-1.666;2022-10-15T15:20:30;11.50;69.70
33988;DHT22;37428;53.580;-1.666;2022-10-15T15:23:33;11.50;69.10
33988;DHT22;37428;53.580;-1.666;2022-10-15T15:26:36;11.60;68.10
33988;DHT22;37428;53.580;-1.666;2022-10-15T15:29:39;11.60;68.20
33988;DHT22;37428;53.580;-1.666;2022-10-15T15:32:42;11.70;70.00
33988;DHT22;37428;53.580;-1.666;2022-10-15T15:35:47;11.70;69.20
33988;DHT22;37428;53.580;-1.666;2022-10-15T15:38:51;11.80;69.20
33988;DHT22;37428;53.580;-1.666;2022-10-15T15:41:58;11.70;68.90
33988;DHT22;37428;53.580;-1.666;2022-10-15T15:45:01;11.70;67.70
33988;DHT22;37428;53.580;-1.666;2022-10-15T15:48:04;11.60;68.50
33988;DHT22;37428;53.580;-1.666;2022-10-15T15:51:08;11.50;68.30
33988;DHT22;37428;53.580;-1.666;2022-10-15T15:54:13;11.50;68.40
33988;DHT22;37428;53.580;-1.666;2022-10-15T15:57:15;11.40;69.30
33988;DHT22;37428;53.580;-1.666;2022-10-15T16:00:19;11.40;69.80
33988;DHT22;37428;53.580;-1.666;2022-10-15T16:03:21;11.40;69.90
33988;DHT22;37428;53.580;-1.666;2022-10-15T16:06:23;11.40;70.10
33988;DHT22;37428;53.580;-1.666;2022-10-15T16:09:26;11.30;68.90
33988;DHT22;37428;53.580;-1.666;2022-10-15T16:12:28;11.30;69.40
33988;DHT22;37428;53.580;-1.666;2022-10-15T16:15:31;11.30;69.40
33988;DHT22;37428;53.580;-1.666;2022-10-15T16:18:33;11.30;68.90
33988;DHT22;37428;53.580;-1.666;2022-10-15T16:21:36;11.20;68.70
33988;DHT22;37428;53.580;-1.666;2022-10-15T16:24:38;11.20;69.00
33988;DHT22;37428;53.580;-1.666;2022-10-15T16:27:41;11.10;69.90
33988;DHT22;37428;53.580;-1.666;2022-10-15T16:30:46;11.20;69.90
33988;DHT22;37428;53.580;-1.666;2022-10-15T16:33:49;11.20;70.50
33988;DHT22;37428;53.580;-1.666;2022-10-15T16:36:51;11.20;69.60
33988;DHT22;37428;53.580;-1.666;2022-10-15T16:39:53;11.10;69.60
33988;DHT22;37428;53.580;-1.666;2022-10-15T16:42:55;11.00;69.40
33988;DHT22;37428;53.580;-1.666;2022-10-15T16:45:59;11.00;69.30
33988;DHT22;37428;53.580;-1.666;2022-10-15T16:49:02;11.00;70.00
33988;DHT22;37428;53.580;-1.666;2022-10-15T16:52:04;11.00;69.40
33988;DHT22;37428;53.580;-1.666;2022-10-15T16:55:07;11.00;69.90
33988;DHT22;37428;53.580;-1.666;2022-10-15T16:58:10;11.00;69.90
33988;DHT22;37428;53.580;-1.666;2022-10-15T17:01:17;11.00;70.20
33988;DHT22;37428;53.580;-1.666;2022-10-15T17:04:19;11.00;71.30
33988;DHT22;37428;53.580;-1.666;2022-10-15T17:07:21;11.00;71.10
33988;DHT22;37428;53.580;-1.666;2022-10-15T17:10:23;11.10;72.20
33988;DHT22;37428;53.580;-1.666;2022-10-15T17:13:26;11.10;72.20
33988;DHT22;37428;53.580;-1.666;2022-10-15T17:16:30;11.00;72.20
33988;DHT22;37428;53.580;-1.666;2022-10-15T17:19:33;11.00;72.00
33988;DHT22;37428;53.580;-1.666;2022-10-15T17:22:35;11.00;71.30
33988;DHT22;37428;53.580;-1.666;2022-10-15T17:25:38;11.00;70.50
33988;DHT22;37428;53.580;-1.666;2022-10-15T17:28:40;11.00;70.00
33988;DHT22;37428;53.580;-1.666;2022-10-15T17:31:45;11.10;69.70
33988;DHT22;37428;53.580;-1.666;2022-10-15T17:34:48;11.10;69.30
33988;DHT22;37428;53.580;-1.666;2022-10-15T17:37:50;11.10;68.70
33988;DHT22;37428;53.580;-1.666;2022-10-15T17:40:52;11.20;67.90
33988;DHT22;37428;53.580;-1.666;2022-10-15T17:43:54;11.20;67.70
33988;DHT22;37428;53.580;-1.666;2022-10-15T17:46:58;11.20;67.70
33988;DHT22;37428;53.580;-1.666;2022-10-15T17:50:00;11.30;68.00
33988;DHT22;37428;53.580;-1.666;2022-10-15T17:53:02;11.30;70.80
33988;DHT22;37428;53.580;-1.666;2022-10-15T17:56:10;11.20;73.10
33988;DHT22;37428;53.580;-1.666;2022-10-15T17:59:13;11.10;75.90
33988;DHT22;37428;53.580;-1.666;2022-10-15T18:02:16;11.10;77.00
33988;DHT22;37428;53.580;-1.666;2022-10-15T18:05:19;11.00;79.20
33988;DHT22;37428;53.580;-1.666;2022-10-15T18:08:21;11.00;79.80
33988;DHT22;37428;53.580;-1.666;2022-10-15T18:11:25;10.90;78.70
33988;DHT22;37428;53.580;-1.666;2022-10-15T18:14:28;10.80;77.20
33988;DHT22;37428;53.580;-1.666;2022-10-15T18:17:31;10.80;77.50
33988;DHT22;37428;53.580;-1.666;2022-10-15T18:20:33;10.70;77.60
33988;DHT22;37428;53.580;-1.666;2022-10-15T18:23:39;10.70;78.30
33988;DHT22;37428;53.580;-1.666;2022-10-15T18:26:43;10.70;78.00
33988;DHT22;37428;53.580;-1.666;2022-10-15T18:29:45;10.70;78.10
33988;DHT22;37428;53.580;-1.666;2022-10-15T18:32:48;10.70;78.20
33988;DHT22;37428;53.580;-1.666;2022-10-15T18:35:50;10.70;76.40
33988;DHT22;37428;53.580;-1.666;2022-10-15T18:38:54;10.70;76.00
33988;DHT22;37428;53.580;-1.666;2022-10-15T18:41:56;10.70;75.50
33988;DHT22;37428;53.580;-1.666;2022-10-15T18:44:58;10.70;75.90
33988;DHT22;37428;53.580;-1.666;2022-10-15T18:48:02;10.80;75.80
33988;DHT22;37428;53.580;-1.666;2022-10-15T18:51:05;10.70;75.50
33988;DHT22;37428;53.580;-1.666;2022-10-15T18:54:09;10.80;76.00
33988;DHT22;37428;53.580;-1.666;2022-10-15T18:57:11;10.80;76.20
33988;DHT22;37428;53.580;-1.666;2022-10-15T19:00:14;10.80;76.30
33988;DHT22;37428;53.580;-1.666;2022-10-15T19:03:18;10.80;76.40
33988;DHT22;37428;53.580;-1.666;2022-10-15T19:06:24;10.80;73.90
33988;DHT22;37428;53.580;-1.666;2022-10-15T19:09:26;10.70;75.30
33988;DHT22;37428;53.580;-1.666;2022-10-15T19:12:28;10.60;76.10
33988;DHT22;37428;53.580;-1.666;2022-10-15T19:15:33;10.50;77.20
33988;DHT22;37428;53.580;-1.666;2022-10-15T19:18:37;10.50;77.70
33988;DHT22;37428;53.580;-1.666;2022-10-15T19:21:39;10.50;77.60